sensor_id;sensor_type;location;lat;lon;timestamp;pressure;altitude;pressure_sealevel;temperature;humidity
13486;BME280;6815;59.336;17.998;2023-02-21T00:02:17;52200.94;;;-145.37;86.05
13486;BME280;6815;59.336;17.998;2023-02-21T00:05:01;52190.97;;;-145.37;85.71
13486;BME280;6815;59.336;17.998;2023-02-21T00:07:45;52196.94;;;-145.37;86.03
13486;BME280;6815;59.336;17.998;2023-02-21T00:10:29;52224.91;;;-145.37;86.09
13486;BME280;6815;59.336;17.998;2023-02-21T00:13:13;52200.94;;;-145.37;86.39
13486;BME280;6815;59.336;17.998;2023-02-21T00:15:57;52165.00;;;-145.37;86.45
13486;BME280;6815;59.336;17.998;2023-02-21T00:18:42;52224.91;;;-145.37;85.95
13486;BME280;6815;59.336;17.998;2023-02-21T00:21:27;52232.88;;;-145.37;86.61
13486;BME280;6815;59.336;17.998;2023-02-21T00:24:12;52192.97;;;-145.37;87.00
13486;BME280;6815;59.336;17.998;2023-02-21T00:26:57;52226.91;;;-145.37;87.20
13486;BME280;6815;59.336;17.998;2023-02-21T00:29:41;52208.94;;;-145.37;87.14
13486;BME280;6815;59.336;17.998;2023-02-21T00:32:25;52202.94;;;-145.37;86.83
13486;BME280;6815;59.336;17.998;2023-02-21T00:35:09;52214.91;;;-145.37;86.62
13486;BME280;6815;59.336;17.998;2023-02-21T00:37:53;52194.94;;;-145.37;86.45
13486;BME280;6815;59.336;17.998;2023-02-21T00:40:38;52214.91;;;-145.37;86.41
13486;BME280;6815;59.336;17.998;2023-02-21T00:43:29;52188.97;;;-145.37;87.55
13486;BME280;6815;59.336;17.998;2023-02-21T00:46:13;52180.97;;;-145.37;87.49
13486;BME280;6815;59.336;17.998;2023-02-21T00:48:58;52248.84;;;-145.37;86.96
13486;BME280;6815;59.336;17.998;2023-02-21T00:51:42;52222.91;;;-145.37;86.56
13486;BME280;6815;59.336;17.998;2023-02-21T00:54:26;52258.84;;;-145.37;87.73
13486;BME280;6815;59.336;17.998;2023-02-21T00:57:10;52206.94;;;-145.37;88.16
13486;BME280;6815;59.336;17.998;2023-02-21T00:59:54;52194.94;;;-145.37;88.07
13486;BME280;6815;59.336;17.998;2023-02-21T01:02:38;52204.94;;;-145.37;87.80
13486;BME280;6815;59.336;17.998;2023-02-21T01:05:23;52175.00;;;-145.37;88.63
13486;BME280;6815;59.336;17.998;2023-02-21T01:08:07;52182.97;;;-145.37;88.82
13486;BME280;6815;59.336;17.998;2023-02-21T01:10:51;52220.91;;;-145.37;88.70
13486;BME280;6815;59.336;17.998;2023-02-21T01:13:35;52167.00;;;-145.37;89.19
13486;BME280;6815;59.336;17.998;2023-02-21T01:16:19;52188.97;;;-145.37;88.96
13486;BME280;6815;59.336;17.998;2023-02-21T01:19:03;52180.97;;;-145.37;89.80
13486;BME280;6815;59.336;17.998;2023-02-21T01:21:47;52210.91;;;-145.37;89.80
13486;BME280;6815;59.336;17.998;2023-02-21T01:24:31;52214.91;;;-145.37;91.40
13486;BME280;6815;59.336;17.998;2023-02-21T01:27:15;52250.84;;;-145.37;91.09
13486;BME280;6815;59.336;17.998;2023-02-21T01:30:00;52171.00;;;-145.37;91.57
13486;BME280;6815;59.336;17.998;2023-02-21T01:32:44;52190.97;;;-145.37;90.45
13486;BME280;6815;59.336;17.998;2023-02-21T01:35:27;52196.94;;;-145.37;90.21
13486;BME280;6815;59.336;17.998;2023-02-21T01:38:12;52192.97;;;-145.37;90.34
13486;BME280;6815;59.336;17.998;2023-02-21T01:40:56;52190.97;;;-145.37;90.42
13486;BME280;6815;59.336;17.998;2023-02-21T01:44:04;52182.97;;;-145.37;89.40
13486;BME280;6815;59.336;17.998;2023-02-21T01:46:49;52188.97;;;-145.37;89.52
13486;BME280;6815;59.336;17.998;2023-02-21T01:49:37;52230.88;;;-145.37;89.60
13486;BME280;6815;59.336;17.998;2023-02-21T01:52:23;52206.94;;;-145.37;89.90
13486;BME280;6815;59.336;17.998;2023-02-21T01:55:09;52204.94;;;-145.37;89.86
13486;BME280;6815;59.336;17.998;2023-02-21T01:57:54;52196.94;;;-145.37;90.65
13486;BME280;6815;59.336;17.998;2023-02-21T02:00:39;52188.97;;;-145.37;91.05
13486;BME280;6815;59.336;17.998;2023-02-21T02:03:24;52188.97;;;-145.37;91.54
13486;BME280;6815;59.336;17.998;2023-02-21T02:06:12;52190.97;;;-145.37;90.87
13486;BME280;6815;59.336;17.998;2023-02-21T02:08:57;52192.97;;;-145.37;91.82
13486;BME280;6815;59.336;17.998;2023-02-21T02:12:18;52175.00;;;-145.37;90.75
13486;BME280;6815;59.336;17.998;2023-02-21T02:18:02;52206.94;;;-145.37;90.87
13486;BME280;6815;59.336;17.998;2023-02-21T02:23:43;52182.97;;;-145.37;90.21
13486;BME280;6815;59.336;17.998;2023-02-21T02:36:41;52173.00;;;-145.37;91.32
13486;BME280;6815;59.336;17.998;2023-02-21T02:42:15;52194.94;;;-145.37;90.57
13486;BME280;6815;59.336;17.998;2023-02-21T02:44:52;52224.91;;;-145.37;91.43
13486;BME280;6815;59.336;17.998;2023-02-21T02:47:34;52165.00;;;-145.37;90.59
13486;BME280;6815;59.336;17.998;2023-02-21T02:50:00;52234.88;;;-145.37;91.09
13486;BME280;6815;59.336;17.998;2023-02-21T02:52:28;52224.91;;;-145.37;91.69
13486;BME280;6815;59.336;17.998;2023-02-21T02:55:00;52212.91;;;-145.37;91.27
13486;BME280;6815;59.336;17.998;2023-02-21T02:57:28;52177.00;;;-145.37;92.06
13486;BME280;6815;59.336;17.998;2023-02-21T03:00:04;52155.03;;;-145.37;90.33
13486;BME280;6815;59.336;17.998;2023-02-21T03:09:08;52186.97;;;-145.37;90.27
13486;BME280;6815;59.336;17.998;2023-02-21T03:11:11;52159.03;;;-145.37;91.92
13486;BME280;6815;59.336;17.998;2023-02-21T03:14:08;52190.97;;;-145.37;91.92
13486;BME280;6815;59.336;17.998;2023-02-21T03:16:43;52202.94;;;-145.37;92.03
13486;BME280;6815;59.336;17.998;2023-02-21T03:22:04;52167.00;;;-145.37;92.37
13486;BME280;6815;59.336;17.998;2023-02-21T03:24:34;52196.94;;;-145.37;92.53
13486;BME280;6815;59.336;17.998;2023-02-21T03:27:04;52204.94;;;-145.37;92.43
13486;BME280;6815;59.336;17.998;2023-02-21T03:29:32;52216.91;;;-145.37;92.33
13486;BME280;6815;59.336;17.998;2023-02-21T03:32:08;52194.94;;;-145.37;92.94
13486;BME280;6815;59.336;17.998;2023-02-21T03:34:35;52228.88;;;-145.37;93.56
13486;BME280;6815;59.336;17.998;2023-02-21T03:37:02;52171.00;;;-145.37;93.06
13486;BME280;6815;59.336;17.998;2023-02-21T03:39:27;52192.97;;;-145.37;93.33
13486;BME280;6815;59.336;17.998;2023-02-21T03:41:53;52212.91;;;-145.37;93.42
13486;BME280;6815;59.336;17.998;2023-02-21T03:44:18;52204.94;;;-145.37;93.92
13486;BME280;6815;59.336;17.998;2023-02-21T03:46:44;52192.97;;;-145.37;93.40
13486;BME280;6815;59.336;17.998;2023-02-21T03:49:09;52133.06;;;-145.37;93.90
13486;BME280;6815;59.336;17.998;2023-02-21T03:51:35;52228.88;;;-145.37;93.44
13486;BME280;6815;59.336;17.998;2023-02-21T03:54:00;52218.91;;;-145.37;93.31
13486;BME280;6815;59.336;17.998;2023-02-21T03:56:26;52202.94;;;-145.37;92.91
13486;BME280;6815;59.336;17.998;2023-02-21T03:58:51;52190.97;;;-145.37;93.70
13486;BME280;6815;59.336;17.998;2023-02-21T04:01:16;52190.97;;;-145.37;93.68
13486;BME280;6815;59.336;17.998;2023-02-21T04:03:42;52224.91;;;-145.37;94.19
13486;BME280;6815;59.336;17.998;2023-02-21T04:06:07;52186.97;;;-145.37;94.14
13486;BME280;6815;59.336;17.998;2023-02-21T04:08:33;52149.03;;;-145.37;94.59
13486;BME280;6815;59.336;17.998;2023-02-21T04:10:58;52180.97;;;-145.37;94.73
13486;BME280;6815;59.336;17.998;2023-02-21T04:13:24;52190.97;;;-145.37;94.47
13486;BME280;6815;59.336;17.998;2023-02-21T04:15:49;52178.97;;;-145.37;93.83
13486;BME280;6815;59.336;17.998;2023-02-21T04:18:15;52167.00;;;-145.37;94.25
13486;BME280;6815;59.336;17.998;2023-02-21T04:20:40;52204.94;;;-145.37;94.54
13486;BME280;6815;59.336;17.998;2023-02-21T04:23:06;52177.00;;;-145.37;93.66
13486;BME280;6815;59.336;17.998;2023-02-21T04:25:31;52182.97;;;-145.37;93.59
13486;BME280;6815;59.336;17.998;2023-02-21T04:27:57;52210.91;;;-145.37;92.93
13486;BME280;6815;59.336;17.998;2023-02-21T04:30:22;52178.97;;;-145.37;93.21
13486;BME280;6815;59.336;17.998;2023-02-21T04:32:48;52175.00;;;-145.37;92.93
13486;BME280;6815;59.336;17.998;2023-02-21T04:35:14;52204.94;;;-145.37;92.96
13486;BME280;6815;59.336;17.998;2023-02-21T04:37:40;52218.91;;;-145.37;92.91
13486;BME280;6815;59.336;17.998;2023-02-21T04:40:06;52184.97;;;-145.37;92.78
13486;BME280;6815;59.336;17.998;2023-02-21T04:42:32;52202.94;;;-145.37;93.45
13486;BME280;6815;59.336;17.998;2023-02-21T04:44:58;52161.03;;;-145.37;93.11
13486;BME280;6815;59.336;17.998;2023-02-21T04:47:24;52190.97;;;-145.37;92.50
13486;BME280;6815;59.336;17.998;2023-02-21T04:49:50;52188.97;;;-145.37;92.39
13486;BME280;6815;59.336;17.998;2023-02-21T04:52:17;52214.91;;;-145.37;92.96
13486;BME280;6815;59.336;17.998;2023-02-21T04:54:47;52196.94;;;-145.37;93.15
13486;BME280;6815;59.336;17.998;2023-02-21T04:57:14;52171.00;;;-145.37;92.74
13486;BME280;6815;59.336;17.998;2023-02-21T04:59:40;52182.97;;;-145.37;93.16
13486;BME280;6815;59.336;17.998;2023-02-21T05:02:06;52248.84;;;-145.37;92.97
13486;BME280;6815;59.336;17.998;2023-02-21T05:04:33;52210.91;;;-145.37;93.45
13486;BME280;6815;59.336;17.998;2023-02-21T05:07:00;52226.91;;;-145.37;93.53
13486;BME280;6815;59.336;17.998;2023-02-21T05:09:27;52180.97;;;-145.37;93.01
13486;BME280;6815;59.336;17.998;2023-02-21T05:11:52;52202.94;;;-145.37;93.17
13486;BME280;6815;59.336;17.998;2023-02-21T05:14:18;52175.00;;;-145.37;92.76
13486;BME280;6815;59.336;17.998;2023-02-21T05:16:43;52196.94;;;-145.37;92.54
13486;BME280;6815;59.336;17.998;2023-02-21T05:19:09;52178.97;;;-145.37;92.68
13486;BME280;6815;59.336;17.998;2023-02-21T05:21:36;52196.94;;;-145.37;92.74
13486;BME280;6815;59.336;17.998;2023-02-21T05:24:04;52182.97;;;-145.37;91.46
13486;BME280;6815;59.336;17.998;2023-02-21T05:26:34;52188.97;;;-145.37;91.89
13486;BME280;6815;59.336;17.998;2023-02-21T05:29:00;52192.97;;;-145.37;91.27
13486;BME280;6815;59.336;17.998;2023-02-21T05:31:27;52194.94;;;-145.37;91.77
13486;BME280;6815;59.336;17.998;2023-02-21T05:33:53;52212.91;;;-145.37;91.84
13486;BME280;6815;59.336;17.998;2023-02-21T05:36:19;52200.94;;;-145.37;91.28
13486;BME280;6815;59.336;17.998;2023-02-21T05:38:48;52190.97;;;-145.37;91.94
13486;BME280;6815;59.336;17.998;2023-02-21T05:41:15;52204.94;;;-145.37;91.75
13486;BME280;6815;59.336;17.998;2023-02-21T05:43:44;52182.97;;;-145.37;91.69
13486;BME280;6815;59.336;17.998;2023-02-21T05:46:32;52196.94;;;-145.37;92.22
13486;BME280;6815;59.336;17.998;2023-02-21T05:49:00;52192.97;;;-145.37;92.71
13486;BME280;6815;59.336;17.998;2023-02-21T05:51:27;52175.00;;;-145.37;92.33
13486;BME280;6815;59.336;17.998;2023-02-21T05:53:52;52175.00;;;-145.37;91.83
13486;BME280;6815;59.336;17.998;2023-02-21T05:56:20;52212.91;;;-145.37;91.97
13486;BME280;6815;59.336;17.998;2023-02-21T05:58:46;52244.84;;;-145.37;91.74
13486;BME280;6815;59.336;17.998;2023-02-21T06:01:11;52198.94;;;-145.37;91.68
13486;BME280;6815;59.336;17.998;2023-02-21T06:03:37;52222.91;;;-145.37;91.56
13486;BME280;6815;59.336;17.998;2023-02-21T06:06:03;52186.97;;;-145.37;91.64
13486;BME280;6815;59.336;17.998;2023-02-21T06:08:28;52194.94;;;-145.37;91.42
13486;BME280;6815;59.336;17.998;2023-02-21T06:10:54;52228.88;;;-145.37;91.38
13486;BME280;6815;59.336;17.998;2023-02-21T06:13:20;52167.00;;;-145.37;91.35
13486;BME280;6815;59.336;17.998;2023-02-21T06:15:45;52226.91;;;-145.37;91.44
13486;BME280;6815;59.336;17.998;2023-02-21T06:18:14;52180.97;;;-145.37;91.42
13486;BME280;6815;59.336;17.998;2023-02-21T06:20:40;52194.94;;;-145.37;91.35
13486;BME280;6815;59.336;17.998;2023-02-21T06:23:06;52165.00;;;-145.37;91.15
13486;BME280;6815;59.336;17.998;2023-02-21T06:25:33;52190.97;;;-145.37;91.57
13486;BME280;6815;59.336;17.998;2023-02-21T06:27:58;52194.94;;;-145.37;91.66
13486;BME280;6815;59.336;17.998;2023-02-21T06:30:24;52173.00;;;-145.37;91.67
13486;BME280;6815;59.336;17.998;2023-02-21T06:32:49;52222.91;;;-145.37;91.47
13486;BME280;6815;59.336;17.998;2023-02-21T06:35:15;52280.78;;;-145.37;91.34
13486;BME280;6815;59.336;17.998;2023-02-21T06:37:40;52204.94;;;-145.37;91.51
13486;BME280;6815;59.336;17.998;2023-02-21T06:40:08;52180.97;;;-145.37;91.41
13486;BME280;6815;59.336;17.998;2023-02-21T06:42:34;52180.97;;;-145.37;91.74
13486;BME280;6815;59.336;17.998;2023-02-21T06:45:03;52171.00;;;-145.37;91.40
13486;BME280;6815;59.336;17.998;2023-02-21T06:47:30;52167.00;;;-145.37;91.15
13486;BME280;6815;59.336;17.998;2023-02-21T06:49:56;52204.94;;;-145.37;91.27
13486;BME280;6815;59.336;17.998;2023-02-21T06:52:21;52188.97;;;-145.37;91.67
13486;BME280;6815;59.336;17.998;2023-02-21T06:54:49;52188.97;;;-145.37;91.90
13486;BME280;6815;59.336;17.998;2023-02-21T06:57:14;52230.88;;;-145.37;92.29
13486;BME280;6815;59.336;17.998;2023-02-21T06:59:40;52212.91;;;-145.37;92.24
13486;BME280;6815;59.336;17.998;2023-02-21T07:02:08;52198.94;;;-145.37;92.45
13486;BME280;6815;59.336;17.998;2023-02-21T07:04:39;52208.94;;;-145.37;92.38
13486;BME280;6815;59.336;17.998;2023-02-21T07:07:04;52161.03;;;-145.37;92.16
13486;BME280;6815;59.336;17.998;2023-02-21T07:09:30;52186.97;;;-145.37;92.44
13486;BME280;6815;59.336;17.998;2023-02-21T07:11:55;52198.94;;;-145.37;92.83
13486;BME280;6815;59.336;17.998;2023-02-21T07:14:20;52202.94;;;-145.37;92.77
13486;BME280;6815;59.336;17.998;2023-02-21T07:16:46;52198.94;;;-145.37;93.25
13486;BME280;6815;59.336;17.998;2023-02-21T07:19:11;52175.00;;;-145.37;93.33
13486;BME280;6815;59.336;17.998;2023-02-21T07:21:40;52180.97;;;-145.37;93.24
13486;BME280;6815;59.336;17.998;2023-02-21T07:24:05;52206.94;;;-145.37;93.07
13486;BME280;6815;59.336;17.998;2023-02-21T07:26:31;52210.91;;;-145.37;94.46
13486;BME280;6815;59.336;17.998;2023-02-21T07:28:56;52210.91;;;-145.37;94.86
13486;BME280;6815;59.336;17.998;2023-02-21T07:31:22;52178.97;;;-145.37;95.19
13486;BME280;6815;59.336;17.998;2023-02-21T07:33:47;52133.06;;;-145.37;94.90
13486;BME280;6815;59.336;17.998;2023-02-21T07:36:13;52194.94;;;-145.37;95.61
13486;BME280;6815;59.336;17.998;2023-02-21T07:38:38;52204.94;;;-145.37;95.28
13486;BME280;6815;59.336;17.998;2023-02-21T07:41:05;52180.97;;;-145.37;95.95
13486;BME280;6815;59.336;17.998;2023-02-21T07:43:31;52186.97;;;-145.37;96.21
13486;BME280;6815;59.336;17.998;2023-02-21T07:45:56;52208.94;;;-145.37;96.32
13486;BME280;6815;59.336;17.998;2023-02-21T07:48:22;52149.03;;;-145.37;96.85
13486;BME280;6815;59.336;17.998;2023-02-21T07:50:47;52165.00;;;-145.37;97.21
13486;BME280;6815;59.336;17.998;2023-02-21T07:53:14;52184.97;;;-145.37;97.07
13486;BME280;6815;59.336;17.998;2023-02-21T07:55:40;52180.97;;;-145.37;97.23
13486;BME280;6815;59.336;17.998;2023-02-21T07:58:06;52198.94;;;-145.37;96.63
13486;BME280;6815;59.336;17.998;2023-02-21T08:00:31;52240.88;;;-145.37;96.66
13486;BME280;6815;59.336;17.998;2023-02-21T08:02:57;52204.94;;;-145.37;97.06
13486;BME280;6815;59.336;17.998;2023-02-21T08:05:23;52230.88;;;-145.37;97.00
13486;BME280;6815;59.336;17.998;2023-02-21T08:07:49;52222.91;;;-145.37;96.94
13486;BME280;6815;59.336;17.998;2023-02-21T08:10:23;52210.91;;;-145.37;96.39
13486;BME280;6815;59.336;17.998;2023-02-21T08:12:49;52192.97;;;-145.37;96.86
13486;BME280;6815;59.336;17.998;2023-02-21T08:15:14;52192.97;;;-145.37;96.44
13486;BME280;6815;59.336;17.998;2023-02-21T08:17:40;52238.88;;;-145.37;96.37
13486;BME280;6815;59.336;17.998;2023-02-21T08:20:06;52206.94;;;-145.37;96.60
13486;BME280;6815;59.336;17.998;2023-02-21T08:22:32;52286.78;;;-145.37;96.69
13486;BME280;6815;59.336;17.998;2023-02-21T08:24:58;52224.91;;;-145.37;96.65
13486;BME280;6815;59.336;17.998;2023-02-21T08:27:23;52198.94;;;-145.37;96.82
13486;BME280;6815;59.336;17.998;2023-02-21T08:29:49;52194.94;;;-145.37;96.62
13486;BME280;6815;59.336;17.998;2023-02-21T08:32:16;52244.84;;;-145.37;96.51
13486;BME280;6815;59.336;17.998;2023-02-21T08:34:49;52171.00;;;-145.37;96.15
13486;BME280;6815;59.336;17.998;2023-02-21T08:37:15;52184.97;;;-145.37;95.86
13486;BME280;6815;59.336;17.998;2023-02-21T08:39:49;52182.97;;;-145.37;95.70
13486;BME280;6815;59.336;17.998;2023-02-21T08:42:17;52192.97;;;-145.37;95.15
13486;BME280;6815;59.336;17.998;2023-02-21T08:44:43;52192.97;;;-145.37;95.59
13486;BME280;6815;59.336;17.998;2023-02-21T08:47:09;52234.88;;;-145.37;95.50
13486;BME280;6815;59.336;17.998;2023-02-21T08:49:35;52226.91;;;-145.37;94.90
13486;BME280;6815;59.336;17.998;2023-02-21T08:52:04;52224.91;;;-145.37;94.98
13486;BME280;6815;59.336;17.998;2023-02-21T08:54:30;52173.00;;;-145.37;94.83
13486;BME280;6815;59.336;17.998;2023-02-21T08:56:56;52220.91;;;-145.37;94.54
13486;BME280;6815;59.336;17.998;2023-02-21T08:59:23;52175.00;;;-145.37;94.34
13486;BME280;6815;59.336;17.998;2023-02-21T09:01:49;52220.91;;;-145.37;94.40
13486;BME280;6815;59.336;17.998;2023-02-21T09:04:14;52264.81;;;-145.37;94.32
13486;BME280;6815;59.336;17.998;2023-02-21T09:06:39;52216.91;;;-145.37;94.20
13486;BME280;6815;59.336;17.998;2023-02-21T09:09:05;52214.91;;;-145.37;93.38
13486;BME280;6815;59.336;17.998;2023-02-21T09:11:30;52214.91;;;-145.37;93.31
13486;BME280;6815;59.336;17.998;2023-02-21T09:13:56;52250.84;;;-145.37;93.34
13486;BME280;6815;59.336;17.998;2023-02-21T09:16:21;52228.88;;;-145.37;93.52
13486;BME280;6815;59.336;17.998;2023-02-21T09:18:58;52210.91;;;-145.37;93.99
13486;BME280;6815;59.336;17.998;2023-02-21T09:21:26;52210.91;;;-145.37;94.18
13486;BME280;6815;59.336;17.998;2023-02-21T09:23:53;52232.88;;;-145.37;94.15
13486;BME280;6815;59.336;17.998;2023-02-21T09:26:19;52212.91;;;-145.37;93.85
13486;BME280;6815;59.336;17.998;2023-02-21T09:28:48;52238.88;;;-145.37;93.03
13486;BME280;6815;59.336;17.998;2023-02-21T09:31:14;52234.88;;;-145.37;93.20
13486;BME280;6815;59.336;17.998;2023-02-21T09:33:39;52204.94;;;-145.37;92.76
13486;BME280;6815;59.336;17.998;2023-02-21T09:36:08;52254.84;;;-145.37;92.12
13486;BME280;6815;59.336;17.998;2023-02-21T09:38:34;52212.91;;;-145.37;91.98
13486;BME280;6815;59.336;17.998;2023-02-21T09:41:01;52260.84;;;-145.37;91.55
13486;BME280;6815;59.336;17.998;2023-02-21T09:43:34;52228.88;;;-145.37;90.52
13486;BME280;6815;59.336;17.998;2023-02-21T09:46:06;52196.94;;;-145.37;90.10
13486;BME280;6815;59.336;17.998;2023-02-21T09:48:35;52256.84;;;-145.37;90.22
13486;BME280;6815;59.336;17.998;2023-02-21T09:51:04;52188.97;;;-145.37;89.45
13486;BME280;6815;59.336;17.998;2023-02-21T09:53:34;52196.94;;;-145.37;89.00
13486;BME280;6815;59.336;17.998;2023-02-21T09:58:49;52208.94;;;-145.37;88.82
13486;BME280;6815;59.336;17.998;2023-02-21T10:01:24;52192.97;;;-145.37;88.38
13486;BME280;6815;59.336;17.998;2023-02-21T10:12:39;52222.91;;;-145.37;88.04
13486;BME280;6815;59.336;17.998;2023-02-21T10:20:51;52202.94;;;-145.37;86.16
13486;BME280;6815;59.336;17.998;2023-02-21T10:23:18;52180.97;;;-145.37;85.37
13486;BME280;6815;59.336;17.998;2023-02-21T10:25:46;52246.84;;;-145.37;85.88
13486;BME280;6815;59.336;17.998;2023-02-21T10:28:21;52204.94;;;-145.37;85.08
13486;BME280;6815;59.336;17.998;2023-02-21T10:30:48;52196.94;;;-145.37;84.81
13486;BME280;6815;59.336;17.998;2023-02-21T10:33:16;52184.97;;;-145.37;85.34
13486;BME280;6815;59.336;17.998;2023-02-21T10:35:42;52214.91;;;-145.37;86.53
13486;BME280;6815;59.336;17.998;2023-02-21T10:38:11;52206.94;;;-145.37;87.81
13486;BME280;6815;59.336;17.998;2023-02-21T10:40:38;52216.91;;;-145.37;88.59
13486;BME280;6815;59.336;17.998;2023-02-21T10:43:29;52240.88;;;-145.37;90.10
13486;BME280;6815;59.336;17.998;2023-02-21T10:48:33;52190.97;;;-145.37;90.26
13486;BME280;6815;59.336;17.998;2023-02-21T10:51:14;52210.91;;;-145.37;89.03
13486;BME280;6815;59.336;17.998;2023-02-21T10:53:45;52230.88;;;-145.37;88.69
13486;BME280;6815;59.336;17.998;2023-02-21T11:01:34;52196.94;;;-145.37;88.41
13486;BME280;6815;59.336;17.998;2023-02-21T11:06:47;52200.94;;;-145.37;86.23
13486;BME280;6815;59.336;17.998;2023-02-21T11:12:19;52208.94;;;-145.37;86.03
13486;BME280;6815;59.336;17.998;2023-02-21T11:17:24;52228.88;;;-145.37;86.50
13486;BME280;6815;59.336;17.998;2023-02-21T11:19:55;52190.97;;;-145.37;86.16
13486;BME280;6815;59.336;17.998;2023-02-21T11:22:34;52192.97;;;-145.37;85.94
13486;BME280;6815;59.336;17.998;2023-02-21T11:25:06;52234.88;;;-145.37;85.66
13486;BME280;6815;59.336;17.998;2023-02-21T11:27:34;52196.94;;;-145.37;84.48
13486;BME280;6815;59.336;17.998;2023-02-21T11:30:09;52246.84;;;-145.37;83.13
13486;BME280;6815;59.336;17.998;2023-02-21T11:32:37;52182.97;;;-145.37;83.02
13486;BME280;6815;59.336;17.998;2023-02-21T11:35:22;52218.91;;;-145.37;83.41
13486;BME280;6815;59.336;17.998;2023-02-21T11:38:11;52208.94;;;-145.37;82.53
13486;BME280;6815;59.336;17.998;2023-02-21T11:40:53;52202.94;;;-145.37;82.24
13486;BME280;6815;59.336;17.998;2023-02-21T11:43:27;52232.88;;;-145.37;81.92
13486;BME280;6815;59.336;17.998;2023-02-21T11:46:01;52186.97;;;-145.37;81.60
13486;BME280;6815;59.336;17.998;2023-02-21T11:48:33;52194.94;;;-145.37;81.02
13486;BME280;6815;59.336;17.998;2023-02-21T11:51:04;52218.91;;;-145.37;80.51
13486;BME280;6815;59.336;17.998;2023-02-21T11:53:41;52216.91;;;-145.37;80.60
13486;BME280;6815;59.336;17.998;2023-02-21T11:56:25;52222.91;;;-145.37;80.21
13486;BME280;6815;59.336;17.998;2023-02-21T12:01:55;52190.97;;;-145.37;80.65
13486;BME280;6815;59.336;17.998;2023-02-21T12:07:51;52216.91;;;-145.37;80.90
13486;BME280;6815;59.336;17.998;2023-02-21T12:13:40;52214.91;;;-145.37;79.98
13486;BME280;6815;59.336;17.998;2023-02-21T12:16:45;52214.91;;;-145.37;80.01
13486;BME280;6815;59.336;17.998;2023-02-21T12:27:53;52248.84;;;-145.37;80.93
13486;BME280;6815;59.336;17.998;2023-02-21T12:38:53;52175.00;;;-145.37;80.99
13486;BME280;6815;59.336;17.998;2023-02-21T12:44:16;52190.97;;;-145.37;81.75
13486;BME280;6815;59.336;17.998;2023-02-21T12:47:07;52206.94;;;-145.37;82.33
13486;BME280;6815;59.336;17.998;2023-02-21T12:49:53;52196.94;;;-145.37;82.40
13486;BME280;6815;59.336;17.998;2023-02-21T12:55:06;52218.91;;;-145.37;83.05
13486;BME280;6815;59.336;17.998;2023-02-21T12:57:50;52202.94;;;-145.37;83.48
13486;BME280;6815;59.336;17.998;2023-02-21T13:00:41;52232.88;;;-145.37;82.74
13486;BME280;6815;59.336;17.998;2023-02-21T13:06:31;52212.91;;;-145.37;83.10
13486;BME280;6815;59.336;17.998;2023-02-21T13:14:21;52242.88;;;-145.37;81.63
13486;BME280;6815;59.336;17.998;2023-02-21T13:16:47;52218.91;;;-145.37;80.47
13486;BME280;6815;59.336;17.998;2023-02-21T13:19:13;52226.91;;;-145.37;80.63
13486;BME280;6815;59.336;17.998;2023-02-21T13:29:22;52188.97;;;-145.37;78.91
13486;BME280;6815;59.336;17.998;2023-02-21T13:32:00;52202.94;;;-145.37;78.96
13486;BME280;6815;59.336;17.998;2023-02-21T13:34:29;52200.94;;;-145.37;79.09
13486;BME280;6815;59.336;17.998;2023-02-21T13:37:00;52139.06;;;-145.37;79.37
13486;BME280;6815;59.336;17.998;2023-02-21T13:39:29;52214.91;;;-145.37;79.13
13486;BME280;6815;59.336;17.998;2023-02-21T13:42:17;52244.84;;;-145.37;79.31
13486;BME280;6815;59.336;17.998;2023-02-21T13:53:17;52208.94;;;-145.37;80.65
13486;BME280;6815;59.336;17.998;2023-02-21T13:58:41;52216.91;;;-145.37;81.10
13486;BME280;6815;59.336;17.998;2023-02-21T14:01:14;52206.94;;;-145.37;81.14
13486;BME280;6815;59.336;17.998;2023-02-21T14:03:40;52198.94;;;-145.37;80.82
13486;BME280;6815;59.336;17.998;2023-02-21T14:08:42;52190.97;;;-145.37;80.13
13486;BME280;6815;59.336;17.998;2023-02-21T14:11:20;52196.94;;;-145.37;79.16
13486;BME280;6815;59.336;17.998;2023-02-21T14:13:53;52204.94;;;-145.37;78.29
13486;BME280;6815;59.336;17.998;2023-02-21T14:19:43;52222.91;;;-145.37;77.68
13486;BME280;6815;59.336;17.998;2023-02-21T14:22:17;52232.88;;;-145.37;77.84
13486;BME280;6815;59.336;17.998;2023-02-21T14:24:48;52244.84;;;-145.37;77.85
13486;BME280;6815;59.336;17.998;2023-02-21T14:29:45;52220.91;;;-145.37;78.25
13486;BME280;6815;59.336;17.998;2023-02-21T14:32:35;52222.91;;;-145.37;77.73
13486;BME280;6815;59.336;17.998;2023-02-21T14:37:51;52214.91;;;-145.37;76.98
13486;BME280;6815;59.336;17.998;2023-02-21T14:40:22;52228.88;;;-145.37;77.40
13486;BME280;6815;59.336;17.998;2023-02-21T14:54:00;52246.84;;;-145.37;78.30
13486;BME280;6815;59.336;17.998;2023-02-21T15:07:38;52236.88;;;-145.37;79.01
13486;BME280;6815;59.336;17.998;2023-02-21T15:10:14;52177.00;;;-145.37;78.38
13486;BME280;6815;59.336;17.998;2023-02-21T15:12:47;52208.94;;;-145.37;78.43
13486;BME280;6815;59.336;17.998;2023-02-21T15:15:22;52188.97;;;-145.37;78.44
13486;BME280;6815;59.336;17.998;2023-02-21T15:20:42;52192.97;;;-145.37;76.18
13486;BME280;6815;59.336;17.998;2023-02-21T15:23:14;52198.94;;;-145.37;75.54
13486;BME280;6815;59.336;17.998;2023-02-21T15:25:44;52210.91;;;-145.37;74.56
13486;BME280;6815;59.336;17.998;2023-02-21T15:28:28;52204.94;;;-145.37;74.53
13486;BME280;6815;59.336;17.998;2023-02-21T15:31:06;52212.91;;;-145.37;74.89
13486;BME280;6815;59.336;17.998;2023-02-21T15:33:34;52186.97;;;-145.37;74.58
13486;BME280;6815;59.336;17.998;2023-02-21T15:36:06;52159.03;;;-145.37;75.15
13486;BME280;6815;59.336;17.998;2023-02-21T15:44:01;52159.03;;;-145.37;76.49
13486;BME280;6815;59.336;17.998;2023-02-21T15:46:32;52204.94;;;-145.37;76.34
13486;BME280;6815;59.336;17.998;2023-02-21T15:49:02;52220.91;;;-145.37;76.10